createdAt,value
2018-02-15T00:00:03.399Z,64.16
2018-02-15T00:01:03.261Z,65.30
2018-02-15T00:02:03.123Z,65.77
2018-02-15T00:03:02.981Z,66.33
2018-02-15T00:04:02.844Z,67.46
2018-02-15T00:05:02.704Z,66.89
2018-02-15T00:06:02.564Z,65.58
2018-02-15T00:07:02.427Z,64.26
2018-02-15T00:08:02.286Z,63.22
2018-02-15T00:09:02.147Z,63.32
2018-02-15T00:10:02.012Z,63.03
2018-02-15T00:11:01.871Z,63.32
2018-02-15T00:12:01.731Z,63.69
2018-02-15T00:13:01.592Z,64.54
2018-02-15T00:14:01.454Z,63.98
2018-02-15T00:15:01.314Z,63.88
2018-02-15T00:16:01.174Z,64.54
2018-02-15T00:17:01.037Z,64.45
2018-02-15T00:18:00.895Z,63.98
2018-02-15T00:19:00.756Z,64.54
2018-02-15T00:20:00.621Z,64.26
2018-02-15T00:21:00.480Z,64.45
2018-02-15T00:22:00.340Z,64.73
2018-02-15T00:23:00.200Z,65.48
2018-02-15T00:24:00.062Z,65.30
2018-02-15T00:24:59.923Z,65.01
2018-02-15T00:25:59.784Z,65.39
2018-02-15T00:26:59.644Z,64.92
2018-02-15T00:27:59.504Z,64.92
2018-02-15T00:28:59.414Z,65.11
2018-02-15T00:29:59.229Z,64.26
2018-02-15T00:30:59.090Z,63.60
2018-02-15T00:31:58.951Z,63.41
2018-02-15T00:32:58.812Z,62.94
2018-02-15T00:33:58.669Z,62.84
2018-02-15T00:34:58.535Z,63.03
2018-02-15T00:35:58.392Z,62.56
2018-02-15T00:36:58.253Z,61.43
2018-02-15T00:37:58.116Z,61.43
2018-02-15T00:38:57.975Z,61.24
2018-02-15T00:39:57.839Z,61.52
2018-02-15T00:40:57.699Z,62.75
2018-02-15T00:41:57.560Z,62.56
2018-02-15T00:42:57.423Z,62.56
2018-02-15T00:43:57.280Z,62.84
2018-02-15T00:44:57.148Z,63.41
2018-02-15T00:45:57.002Z,62.65
2018-02-15T00:46:56.861Z,62.47
2018-02-15T00:47:56.722Z,62.56
2018-02-15T00:48:56.585Z,62.94
2018-02-15T00:49:56.445Z,63.03
2018-02-15T00:50:56.305Z,62.28
2018-02-15T00:51:56.164Z,62.28
2018-02-15T00:52:56.027Z,62.37
2018-02-15T00:53:55.888Z,62.65
2018-02-15T00:54:55.747Z,62.75
2018-02-15T00:55:55.608Z,62.47
2018-02-15T00:56:55.473Z,62.75
2018-02-15T00:57:55.331Z,61.62
2018-02-15T00:58:55.190Z,61.62
2018-02-15T00:59:55.053Z,61.24
2018-02-15T01:00:54.910Z,61.52
2018-02-15T01:01:54.771Z,62.09
2018-02-15T01:02:54.634Z,62.56
2018-02-15T01:03:54.496Z,62.37
2018-02-15T01:04:54.356Z,62.56
2018-02-15T01:05:54.225Z,62.65
2018-02-15T01:06:54.076Z,61.71
2018-02-15T01:07:53.941Z,61.62
2018-02-15T01:08:53.799Z,61.33
2018-02-15T01:09:53.663Z,61.62
2018-02-15T01:10:53.521Z,61.24
2018-02-15T01:11:53.382Z,60.77
2018-02-15T01:12:53.244Z,60.86
2018-02-15T01:13:53.108Z,59.92
2018-02-15T01:14:52.965Z,59.92
2018-02-15T01:15:52.825Z,59.92
2018-02-15T01:16:52.687Z,59.45
2018-02-15T01:17:52.549Z,58.42
2018-02-15T01:18:52.411Z,57.29
2018-02-15T01:19:52.268Z,56.53
2018-02-15T01:20:52.131Z,55.87
2018-02-15T01:21:51.992Z,54.74
2018-02-15T01:22:51.854Z,54.08
2018-02-15T01:23:51.712Z,53.70
2018-02-15T01:24:51.572Z,53.99
2018-02-15T01:25:51.435Z,55.68
2018-02-15T01:26:51.294Z,57.47
2018-02-15T01:27:51.154Z,59.17
2018-02-15T01:28:51.016Z,59.45
2018-02-15T01:29:50.879Z,60.02
2018-02-15T01:30:50.739Z,60.49
2018-02-15T01:31:50.599Z,60.96
2018-02-15T01:32:50.461Z,60.68
2018-02-15T01:33:50.321Z,60.39
2018-02-15T01:34:50.185Z,60.49
2018-02-15T01:35:50.043Z,61.33
2018-02-15T01:36:49.904Z,62.37
2018-02-15T01:37:49.766Z,63.50
2018-02-15T01:38:49.628Z,63.50
2018-02-15T01:39:49.488Z,63.13
2018-02-15T01:40:49.351Z,63.03
2018-02-15T01:41:49.210Z,62.65
2018-02-15T01:42:49.075Z,62.84
2018-02-15T01:43:48.934Z,61.81
2018-02-15T01:44:48.792Z,60.68
2018-02-15T01:45:48.654Z,60.39
2018-02-15T01:46:48.517Z,60.21
2018-02-15T01:47:48.376Z,60.21
2018-02-15T01:48:48.235Z,59.64
2018-02-15T01:49:48.097Z,59.27
2018-02-15T01:50:47.964Z,58.98
2018-02-15T01:51:47.821Z,59.74
2018-02-15T01:52:47.682Z,57.95
2018-02-15T01:53:47.543Z,56.72
2018-02-15T01:54:47.406Z,56.91
2018-02-15T01:55:47.264Z,56.91
2018-02-15T01:56:47.125Z,54.64
2018-02-15T01:57:46.990Z,52.76
2018-02-15T01:58:46.849Z,52.95
2018-02-15T01:59:46.734Z,52.39
2018-02-15T02:00:46.568Z,53.23
2018-02-15T02:01:46.432Z,53.99
2018-02-15T02:02:46.291Z,54.74
2018-02-15T02:03:46.154Z,55.87
2018-02-15T02:04:46.018Z,56.53
2018-02-15T02:05:45.873Z,57.29
2018-02-15T02:06:45.738Z,55.87
2018-02-15T02:07:45.595Z,55.96
2018-02-15T02:08:45.454Z,55.11
2018-02-15T02:09:45.317Z,53.99
2018-02-15T02:10:45.177Z,53.70
2018-02-15T02:11:45.038Z,53.33
2018-02-15T02:12:44.900Z,53.70
2018-02-15T02:13:44.762Z,54.46
2018-02-15T02:14:44.624Z,55.30
2018-02-15T02:15:44.483Z,55.11
2018-02-15T02:16:44.349Z,55.30
2018-02-15T02:17:44.204Z,55.49
2018-02-15T02:18:44.066Z,55.68
2018-02-15T02:19:43.927Z,55.68
2018-02-15T02:20:43.788Z,55.59
2018-02-15T02:21:43.653Z,55.59
2018-02-15T02:22:43.511Z,55.78
2018-02-15T02:23:43.371Z,55.21
2018-02-15T02:24:43.231Z,55.96
2018-02-15T02:25:43.091Z,55.68
2018-02-15T02:26:42.955Z,56.06
2018-02-15T02:27:42.814Z,56.62
2018-02-15T02:28:42.676Z,56.81
2018-02-15T02:29:42.545Z,55.68
2018-02-15T02:30:42.397Z,54.36
2018-02-15T02:31:42.258Z,52.76
2018-02-15T02:32:42.122Z,52.95
2018-02-15T02:33:41.982Z,54.08
2018-02-15T02:34:41.845Z,54.83
2018-02-15T02:35:41.702Z,55.02
2018-02-15T02:36:41.570Z,54.74
2018-02-15T02:37:41.428Z,54.83
2018-02-15T02:38:41.287Z,54.55
2018-02-15T02:39:41.147Z,53.99
2018-02-15T02:40:41.010Z,53.80
2018-02-15T02:41:40.868Z,53.89
2018-02-15T02:42:40.729Z,54.08
2018-02-15T02:43:40.593Z,54.46
2018-02-15T02:44:40.454Z,55.11
2018-02-15T02:45:40.315Z,55.59
2018-02-15T02:46:40.172Z,56.15
2018-02-15T02:47:40.033Z,56.81
2018-02-15T02:48:39.894Z,57.19
2018-02-15T02:49:39.759Z,56.25
2018-02-15T02:50:39.616Z,55.87
2018-02-15T02:51:39.480Z,56.15
2018-02-15T02:52:39.336Z,55.87
2018-02-15T02:53:39.199Z,55.49
2018-02-15T02:54:39.063Z,55.49
2018-02-15T02:55:38.921Z,54.83
2018-02-15T02:56:38.785Z,55.96
2018-02-15T02:57:38.645Z,56.62
2018-02-15T02:58:38.508Z,57.10
2018-02-15T02:59:38.364Z,57.19
2018-02-15T03:00:38.225Z,56.72
2018-02-15T03:01:38.090Z,56.81
2018-02-15T03:02:37.951Z,56.91
2018-02-15T03:03:37.812Z,56.91
2018-02-15T03:04:37.672Z,57.29
2018-02-15T03:05:37.532Z,58.13
2018-02-15T03:06:37.393Z,58.80
2018-02-15T03:07:37.256Z,57.76
2018-02-15T03:08:37.117Z,56.91
2018-02-15T03:09:36.978Z,56.91
2018-02-15T03:10:36.846Z,57.10
2018-02-15T03:11:36.702Z,58.13
2018-02-15T03:12:36.561Z,58.23
2018-02-15T03:13:36.424Z,58.13
2018-02-15T03:14:36.284Z,57.95
2018-02-15T03:15:36.147Z,57.38
2018-02-15T03:16:36.007Z,55.96
2018-02-15T03:17:35.871Z,54.93
2018-02-15T03:18:35.732Z,54.64
2018-02-15T03:19:35.591Z,54.64
2018-02-15T03:20:35.455Z,55.59
2018-02-15T03:21:35.321Z,57.19
2018-02-15T03:22:35.180Z,57.38
2018-02-15T03:23:35.040Z,58.04
2018-02-15T03:24:34.901Z,58.23
2018-02-15T03:25:34.767Z,58.23
2018-02-15T03:26:34.624Z,58.23
2018-02-15T03:27:34.488Z,56.25
2018-02-15T03:28:34.350Z,54.93
2018-02-15T03:29:34.217Z,54.74
2018-02-15T03:30:34.075Z,55.21
2018-02-15T03:31:33.932Z,54.93
2018-02-15T03:32:33.806Z,55.87
2018-02-15T03:33:33.656Z,55.59
2018-02-15T03:34:33.519Z,55.21
2018-02-15T03:35:33.382Z,53.70
2018-02-15T03:36:33.243Z,53.33
2018-02-15T03:37:33.109Z,53.80
2018-02-15T03:38:32.966Z,54.08
2018-02-15T03:39:32.827Z,54.36
2018-02-15T03:40:32.694Z,55.30
2018-02-15T03:41:32.551Z,55.68
2018-02-15T03:42:32.419Z,55.49
2018-02-15T03:43:32.276Z,56.91
2018-02-15T03:44:32.141Z,56.62
2018-02-15T03:45:32.006Z,55.99
2018-02-15T03:46:31.868Z,55.52
2018-02-15T03:47:31.724Z,55.15
2018-02-15T03:48:31.587Z,55.52
2018-02-15T03:49:31.450Z,55.52
2018-02-15T03:50:31.312Z,55.30
2018-02-15T03:51:31.173Z,55.21
2018-02-15T03:52:31.037Z,55.21
2018-02-15T03:53:30.898Z,55.33
2018-02-15T03:54:30.760Z,55.05
2018-02-15T03:55:30.620Z,54.17
2018-02-15T03:56:30.484Z,53.99
2018-02-15T03:57:30.347Z,53.73
2018-02-15T03:58:30.209Z,53.33
2018-02-15T03:59:30.072Z,54.30
2018-02-15T04:00:29.935Z,55.40
2018-02-15T04:01:29.795Z,55.11
2018-02-15T04:02:29.659Z,55.96
2018-02-15T04:03:29.521Z,56.56
2018-02-15T04:04:29.387Z,56.37
2018-02-15T04:05:29.248Z,56.75
2018-02-15T04:06:29.108Z,57.03
2018-02-15T04:07:28.971Z,57.50
2018-02-15T04:08:28.834Z,58.07
2018-02-15T04:09:28.697Z,55.96
2018-02-15T04:10:28.558Z,54.55
2018-02-15T04:11:28.420Z,53.23
2018-02-15T04:12:28.287Z,52.95
2018-02-15T04:13:28.147Z,52.67
2018-02-15T04:14:28.010Z,52.20
2018-02-15T04:15:27.871Z,52.58
2018-02-15T04:16:27.736Z,52.39
2018-02-15T04:17:27.596Z,53.33
2018-02-15T04:18:27.460Z,53.33
2018-02-15T04:19:27.323Z,51.92
2018-02-15T04:20:27.185Z,51.07
2018-02-15T04:21:27.046Z,49.93
2018-02-15T04:22:26.911Z,49.65
2018-02-15T04:23:26.771Z,49.84
2018-02-15T04:24:26.636Z,51.07
2018-02-15T04:25:26.495Z,50.71
2018-02-15T04:26:26.360Z,51.07
2018-02-15T04:27:26.222Z,52.51
2018-02-15T04:28:26.120Z,53.64
2018-02-15T04:29:25.945Z,54.58
2018-02-15T04:30:25.809Z,55.99
2018-02-15T04:31:25.673Z,56.75
2018-02-15T04:32:25.538Z,57.31
2018-02-15T04:33:25.396Z,58.63
2018-02-15T04:34:25.258Z,59.01
2018-02-15T04:35:25.120Z,59.11
2018-02-15T04:36:24.998Z,58.73
2018-02-15T04:37:24.847Z,57.12
2018-02-15T04:38:24.710Z,55.24
2018-02-15T04:39:24.569Z,55.33
2018-02-15T04:40:24.434Z,54.77
2018-02-15T04:41:24.296Z,54.30
2018-02-15T04:42:24.159Z,54.49
2018-02-15T04:43:24.020Z,55.43
2018-02-15T04:44:23.882Z,55.05
2018-02-15T04:45:23.747Z,54.30
2018-02-15T04:46:23.606Z,53.45
2018-02-15T04:47:23.471Z,52.98
2018-02-15T04:48:23.334Z,53.36
2018-02-15T04:49:23.198Z,53.07
2018-02-15T04:50:23.061Z,53.73
2018-02-15T04:51:22.923Z,54.58
2018-02-15T04:52:22.787Z,55.90
2018-02-15T04:53:22.648Z,56.56
2018-02-15T04:54:22.513Z,57.12
2018-02-15T04:55:22.376Z,56.46
2018-02-15T04:56:22.237Z,55.90
2018-02-15T04:57:22.111Z,55.80
2018-02-15T04:58:21.966Z,55.05
2018-02-15T04:59:21.828Z,54.39
2018-02-15T05:00:21.692Z,54.68
2018-02-15T05:01:21.558Z,55.33
2018-02-15T05:02:21.419Z,55.33
2018-02-15T05:03:21.280Z,55.99
2018-02-15T05:04:21.144Z,58.07
2018-02-15T05:05:21.010Z,57.31
2018-02-15T05:06:20.875Z,57.03
2018-02-15T05:07:20.733Z,57.60
2018-02-15T05:08:20.598Z,55.05
2018-02-15T05:09:20.461Z,53.73
2018-02-15T05:10:20.326Z,51.66
2018-02-15T05:11:20.188Z,50.24
2018-02-15T05:12:20.053Z,49.30
2018-02-15T05:13:19.913Z,49.21
2018-02-15T05:14:19.778Z,48.93
2018-02-15T05:15:19.640Z,47.41
2018-02-15T05:16:19.510Z,48.55
2018-02-15T05:17:19.368Z,50.05
2018-02-15T05:18:19.229Z,50.15
2018-02-15T05:19:19.093Z,50.24
2018-02-15T05:20:18.956Z,51.09
2018-02-15T05:21:18.820Z,51.09
2018-02-15T05:22:18.682Z,50.99
2018-02-15T05:23:18.542Z,51.56
2018-02-15T05:24:18.409Z,51.66
2018-02-15T05:25:18.270Z,52.03
2018-02-15T05:26:18.136Z,52.13
2018-02-15T05:27:17.997Z,51.94
2018-02-15T05:28:17.861Z,52.79
2018-02-15T05:29:17.847Z,52.51
2018-02-15T05:30:17.587Z,52.98
2018-02-15T05:31:17.452Z,52.98
2018-02-15T05:32:17.312Z,52.98
2018-02-15T05:33:17.175Z,53.07
2018-02-15T05:34:17.038Z,50.90
2018-02-15T05:35:16.904Z,49.11
2018-02-15T05:36:16.765Z,49.96
2018-02-15T05:37:16.630Z,50.05
2018-02-15T05:38:16.491Z,50.52
2018-02-15T05:39:16.356Z,51.09
2018-02-15T05:40:16.221Z,51.09
2018-02-15T05:41:16.085Z,51.66
2018-02-15T05:42:15.949Z,54.11
2018-02-15T05:43:15.808Z,56.12
2018-02-15T05:44:15.670Z,56.77
2018-02-15T05:45:15.539Z,56.12
2018-02-15T05:46:15.406Z,58.38
2018-02-15T05:47:15.265Z,59.04
2018-02-15T05:48:15.126Z,59.42
2018-02-15T05:49:14.993Z,58.47
2018-02-15T05:50:14.857Z,54.70
2018-02-15T05:51:14.724Z,52.91
2018-02-15T05:52:14.585Z,53.10
2018-02-15T05:53:14.448Z,54.14
2018-02-15T05:54:14.311Z,56.02
2018-02-15T05:55:14.176Z,55.93
2018-02-15T05:56:14.040Z,55.93
2018-02-15T05:57:13.904Z,55.74
2018-02-15T05:58:13.770Z,55.27
2018-02-15T05:59:13.630Z,53.76
2018-02-15T06:00:13.496Z,53.95
2018-02-15T06:01:13.359Z,53.66
2018-02-15T06:02:13.225Z,54.51
2018-02-15T06:03:13.088Z,54.99
2018-02-15T06:04:12.951Z,54.80
2018-02-15T06:05:12.817Z,53.95
2018-02-15T06:06:12.680Z,53.76
2018-02-15T06:07:12.543Z,53.95
2018-02-15T06:08:12.411Z,54.80
2018-02-15T06:09:12.273Z,55.27
2018-02-15T06:10:12.140Z,55.18
2018-02-15T06:11:12.004Z,54.42
2018-02-15T06:12:12.606Z,54.04
2018-02-15T06:13:11.747Z,54.04
2018-02-15T06:14:11.597Z,55.65
2018-02-15T06:15:11.460Z,57.06
2018-02-15T06:16:11.326Z,58.66
2018-02-15T06:17:11.192Z,57.91
2018-02-15T06:18:11.126Z,56.68
2018-02-15T06:19:10.933Z,56.96
2018-02-15T06:20:10.784Z,55.93
2018-02-15T06:21:10.678Z,54.42
2018-02-15T06:22:10.512Z,54.14
2018-02-15T06:23:10.379Z,53.10
2018-02-15T06:24:10.244Z,52.72
2018-02-15T06:25:10.106Z,51.97
2018-02-15T06:26:09.970Z,51.12
2018-02-15T06:27:09.839Z,49.14
2018-02-15T06:28:09.705Z,49.61
2018-02-15T06:29:09.566Z,50.84
2018-02-15T06:30:09.430Z,52.62
2018-02-15T06:31:09.296Z,53.00
2018-02-15T06:32:09.160Z,53.38
2018-02-15T06:33:09.026Z,52.81
2018-02-15T06:34:08.901Z,54.14
2018-02-15T06:35:08.750Z,53.41
2018-02-15T06:36:08.622Z,52.94
2018-02-15T06:37:08.487Z,53.13
2018-02-15T06:38:08.346Z,53.22
2018-02-15T06:39:08.211Z,54.35
2018-02-15T06:40:08.112Z,53.19
2018-02-15T06:41:07.948Z,50.18
2018-02-15T06:42:07.806Z,48.38
2018-02-15T06:43:07.672Z,48.10
2018-02-15T06:44:07.535Z,48.10
2018-02-15T06:45:07.400Z,46.50
2018-02-15T06:46:07.271Z,45.84
2018-02-15T06:47:07.149Z,46.03
2018-02-15T06:48:06.994Z,46.97
2018-02-15T06:49:06.860Z,46.22
2018-02-15T06:50:06.724Z,48.29
2018-02-15T06:51:06.590Z,50.46
2018-02-15T06:52:06.475Z,51.59
2018-02-15T06:53:06.317Z,52.44
2018-02-15T06:54:06.182Z,53.66
2018-02-15T06:55:06.049Z,55.27
2018-02-15T06:56:05.915Z,55.46
2018-02-15T06:57:05.778Z,55.65
2018-02-15T06:58:05.644Z,56.59
2018-02-15T06:59:05.508Z,57.25
2018-02-15T07:00:05.373Z,57.81
2018-02-15T07:01:05.258Z,58.19
2018-02-15T07:02:05.105Z,57.56
2018-02-15T07:03:04.968Z,56.49
2018-02-15T07:04:04.833Z,55.77
2018-02-15T07:05:04.699Z,55.20
2018-02-15T07:06:04.563Z,56.05
2018-02-15T07:07:04.427Z,57.46
2018-02-15T07:08:04.295Z,59.35
2018-02-15T07:09:04.159Z,58.60
2018-02-15T07:10:04.024Z,57.46
2018-02-15T07:11:03.889Z,58.03
2018-02-15T07:12:03.766Z,59.26
2018-02-15T07:13:03.619Z,59.73
2018-02-15T07:14:03.487Z,59.07
2018-02-15T07:15:03.349Z,59.45
2018-02-15T07:16:03.216Z,59.64
2018-02-15T07:17:03.081Z,58.60
2018-02-15T07:18:02.947Z,57.28
2018-02-15T07:19:02.811Z,55.39
2018-02-15T07:20:02.676Z,54.44
2018-02-15T07:21:02.543Z,55.30
2018-02-15T07:22:02.423Z,55.30
2018-02-15T07:23:02.275Z,55.01
2018-02-15T07:24:02.138Z,55.20
2018-02-15T07:25:02.004Z,56.71
2018-02-15T07:26:01.869Z,58.69
2018-02-15T07:27:01.738Z,56.71
2018-02-15T07:28:01.602Z,54.73
2018-02-15T07:29:01.465Z,53.78
2018-02-15T07:30:01.331Z,54.63
2018-02-15T07:31:01.195Z,55.49
2018-02-15T07:32:01.067Z,54.07
2018-02-15T07:33:00.935Z,53.13
2018-02-15T07:34:00.795Z,53.69
2018-02-15T07:35:00.660Z,57.46
2018-02-15T07:36:00.523Z,58.12
2018-02-15T07:37:00.390Z,57.09
2018-02-15T07:38:00.255Z,57.37
2018-02-15T07:39:00.121Z,58.22
2018-02-15T07:39:59.989Z,58.88
2018-02-15T07:40:59.854Z,56.34
2018-02-15T07:41:59.721Z,54.54
2018-02-15T07:42:59.584Z,54.16
2018-02-15T07:43:59.448Z,54.92
2018-02-15T07:44:59.315Z,55.96
2018-02-15T07:45:59.180Z,57.18
2018-02-15T07:46:59.048Z,58.22
2018-02-15T07:47:58.912Z,59.26
2018-02-15T07:48:58.782Z,59.45
2018-02-15T07:49:58.645Z,58.69
2018-02-15T07:50:58.510Z,57.28
2018-02-15T07:51:58.377Z,55.96
2018-02-15T07:52:58.244Z,54.35
2018-02-15T07:53:58.109Z,53.50
2018-02-15T07:54:57.975Z,53.03
2018-02-15T07:55:57.843Z,51.90
2018-02-15T07:56:57.707Z,52.18
2018-02-15T07:57:57.572Z,52.66
2018-02-15T07:58:57.438Z,53.13
2018-02-15T07:59:57.303Z,54.16
2018-02-15T08:00:57.172Z,54.26
2018-02-15T08:01:57.039Z,54.44
2018-02-15T08:02:56.902Z,55.11
2018-02-15T08:03:56.770Z,55.30
2018-02-15T08:04:56.638Z,55.67
2018-02-15T08:05:56.500Z,57.46
2018-02-15T08:06:56.368Z,58.03
2018-02-15T08:07:56.233Z,58.60
2018-02-15T08:08:56.099Z,59.35
2018-02-15T08:09:55.966Z,59.54
2018-02-15T08:10:55.831Z,60.49
2018-02-15T08:11:55.699Z,60.86
2018-02-15T08:12:55.565Z,60.05
2018-02-15T08:13:55.430Z,58.22
2018-02-15T08:14:55.297Z,55.89
2018-02-15T08:15:55.165Z,50.70
2018-02-15T08:16:55.030Z,47.58
2018-02-15T08:17:54.897Z,47.02
2018-02-15T08:18:54.765Z,48.90
2018-02-15T08:19:54.635Z,49.66
2018-02-15T08:20:54.499Z,51.26
2018-02-15T08:21:54.366Z,53.72
2018-02-15T08:22:54.231Z,55.89
2018-02-15T08:23:54.099Z,55.51
2018-02-15T08:24:53.965Z,55.51
2018-02-15T08:25:53.832Z,55.98
2018-02-15T08:26:53.697Z,55.61
2018-02-15T08:27:53.568Z,55.42
2018-02-15T08:28:53.430Z,55.04
2018-02-15T08:29:53.303Z,56.55
2018-02-15T08:30:53.166Z,57.03
2018-02-15T08:31:53.034Z,56.27
2018-02-15T08:32:52.900Z,55.70
2018-02-15T08:33:52.767Z,55.61
2018-02-15T08:34:52.634Z,55.23
2018-02-15T08:35:52.500Z,55.42
2018-02-15T08:36:52.367Z,55.23
2018-02-15T08:37:52.272Z,55.70
2018-02-15T08:38:52.102Z,57.03
2018-02-15T08:39:51.969Z,55.98
2018-02-15T08:40:51.834Z,58.34
2018-02-15T08:41:51.703Z,58.82
2018-02-15T08:42:51.571Z,58.53
2018-02-15T08:43:51.437Z,57.50
2018-02-15T08:44:51.305Z,56.84
2018-02-15T08:45:51.172Z,56.93
2018-02-15T08:46:51.041Z,56.93
2018-02-15T08:47:50.908Z,57.78
2018-02-15T08:48:50.777Z,57.31
2018-02-15T08:49:50.644Z,56.84
2018-02-15T08:50:50.507Z,57.59
2018-02-15T08:51:50.377Z,58.91
2018-02-15T08:52:50.242Z,59.38
2018-02-15T08:53:50.110Z,60.80
2018-02-15T08:54:49.976Z,62.97
2018-02-15T08:55:49.843Z,64.48
2018-02-15T08:56:49.710Z,65.90
2018-02-15T08:57:49.577Z,67.88
2018-02-15T08:58:49.444Z,69.11
2018-02-15T08:59:49.313Z,70.05
2018-02-15T09:00:49.179Z,72.32
2018-02-15T09:01:49.046Z,73.55
2018-02-15T09:02:48.912Z,75.53
2018-02-15T09:03:48.798Z,77.42
2018-02-15T09:04:48.645Z,79.59
2018-02-15T09:05:48.511Z,81.57
2018-02-15T09:06:48.378Z,83.27
2018-02-15T09:07:48.247Z,84.12
2018-02-15T09:08:48.114Z,84.12
2018-02-15T09:09:47.981Z,83.36
2018-02-15T09:10:47.846Z,83.08
2018-02-15T09:11:47.712Z,83.17
2018-02-15T09:12:47.580Z,83.46
2018-02-15T09:13:47.448Z,83.65
2018-02-15T09:14:47.313Z,84.03
2018-02-15T09:15:47.179Z,84.59
2018-02-15T09:16:47.047Z,84.78
2018-02-15T09:17:46.913Z,85.91
2018-02-15T09:18:46.779Z,86.01
2018-02-15T09:19:46.646Z,86.19
2018-02-15T09:20:46.511Z,87.33
2018-02-15T09:21:46.378Z,87.90
2018-02-15T09:22:46.244Z,87.71
2018-02-15T09:23:46.112Z,88.28
2018-02-15T09:24:45.990Z,88.37
2018-02-15T09:25:45.846Z,88.28
2018-02-15T09:26:45.714Z,88.65
2018-02-15T09:27:45.581Z,89.50
2018-02-15T09:28:45.445Z,89.59
2018-02-15T09:29:45.325Z,89.55
2018-02-15T09:30:45.181Z,89.83
2018-02-15T09:31:45.044Z,90.21
2018-02-15T09:32:44.913Z,90.87
2018-02-15T09:33:44.779Z,90.82
2018-02-15T09:34:44.646Z,91.44
2018-02-15T09:35:44.513Z,90.87
2018-02-15T09:36:44.379Z,90.64
2018-02-15T09:37:44.247Z,91.06
2018-02-15T09:38:44.122Z,90.68
2018-02-15T09:39:43.977Z,90.82
2018-02-15T09:40:43.847Z,90.07
2018-02-15T09:41:43.714Z,90.16
2018-02-15T09:42:43.578Z,90.26
2018-02-15T09:43:43.448Z,90.07
2018-02-15T09:44:43.313Z,90.82
2018-02-15T09:45:43.194Z,90.45
2018-02-15T09:46:43.044Z,90.73
2018-02-15T09:47:42.911Z,91.20
2018-02-15T09:48:42.778Z,90.73
2018-02-15T09:49:42.646Z,90.73
2018-02-15T09:50:42.513Z,90.82
2018-02-15T09:51:42.377Z,90.92
2018-02-15T09:52:42.245Z,90.82
2018-02-15T09:53:42.111Z,90.64
2018-02-15T09:54:41.977Z,91.11
2018-02-15T09:55:41.844Z,90.92
2018-02-15T09:56:41.714Z,90.73
2018-02-15T09:57:41.578Z,91.01
2018-02-15T09:58:41.445Z,90.54
2018-02-15T09:59:41.313Z,90.82
2018-02-15T10:00:41.182Z,90.73
2018-02-15T10:01:41.047Z,90.64
2018-02-15T10:02:40.912Z,90.73
2018-02-15T10:03:40.778Z,91.11
2018-02-15T10:04:40.646Z,91.30
2018-02-15T10:05:40.515Z,91.11
2018-02-15T10:06:40.378Z,91.49
2018-02-15T10:07:40.245Z,91.01
2018-02-15T10:08:40.114Z,91.58
2018-02-15T10:09:39.979Z,91.77
2018-02-15T10:10:39.846Z,92.43
2018-02-15T10:11:39.713Z,92.14
2018-02-15T10:12:39.582Z,91.58
2018-02-15T10:13:39.449Z,91.86
2018-02-15T10:14:39.316Z,91.96
2018-02-15T10:15:39.184Z,92.14
2018-02-15T10:16:39.051Z,91.96
2018-02-15T10:17:38.918Z,92.52
2018-02-15T10:18:38.783Z,92.24
2018-02-15T10:19:38.652Z,93.18
2018-02-15T10:20:38.547Z,93.47
2018-02-15T10:21:38.385Z,92.61
2018-02-15T10:22:38.252Z,92.24
2018-02-15T10:23:38.120Z,92.52
2018-02-15T10:24:37.989Z,92.14
2018-02-15T10:25:37.857Z,92.61
2018-02-15T10:26:37.728Z,92.33
2018-02-15T10:27:37.589Z,92.05
2018-02-15T10:28:37.455Z,92.33
2018-02-15T10:29:37.323Z,92.61
2018-02-15T10:30:37.190Z,92.43
2018-02-15T10:31:37.058Z,92.71
2018-02-15T10:32:36.929Z,92.71
2018-02-15T10:33:36.793Z,92.71
2018-02-15T10:34:36.660Z,92.80
2018-02-15T10:35:36.526Z,92.85
2018-02-15T10:36:36.426Z,92.38
2018-02-15T10:37:36.261Z,92.29
2018-02-15T10:38:36.127Z,92.38
2018-02-15T10:39:35.995Z,92.57
2018-02-15T10:40:35.863Z,92.57
2018-02-15T10:41:35.731Z,92.19
2018-02-15T10:42:35.596Z,92.57
2018-02-15T10:43:35.466Z,92.47
2018-02-15T10:44:35.334Z,92.66
2018-02-15T10:45:35.200Z,92.57
2018-02-15T10:46:35.067Z,92.76
2018-02-15T10:47:34.934Z,93.51
2018-02-15T10:48:34.810Z,93.51
2018-02-15T10:49:34.671Z,93.23
2018-02-15T10:50:34.542Z,93.42
2018-02-15T10:51:34.406Z,93.51
2018-02-15T10:52:34.276Z,93.70
2018-02-15T10:53:34.142Z,94.08
2018-02-15T10:54:34.012Z,94.65
2018-02-15T10:55:33.883Z,95.21
2018-02-15T10:56:33.746Z,95.21
2018-02-15T10:57:33.614Z,95.40
2018-02-15T10:58:33.488Z,96.25
2018-02-15T10:59:33.350Z,95.21
2018-02-15T11:00:33.218Z,94.56
2018-02-15T11:01:33.088Z,95.03
2018-02-15T11:02:32.960Z,94.56
2018-02-15T11:03:32.826Z,94.56
2018-02-15T11:04:32.694Z,93.99
2018-02-15T11:05:32.560Z,94.18
2018-02-15T11:06:32.427Z,94.37
2018-02-15T11:07:32.295Z,94.18
2018-02-15T11:08:32.165Z,93.80
2018-02-15T11:09:32.033Z,93.23
2018-02-15T11:10:31.899Z,93.66
2018-02-15T11:11:31.767Z,93.18
2018-02-15T11:12:31.639Z,93.37
2018-02-15T11:13:31.504Z,93.18
2018-02-15T11:14:31.376Z,93.56
2018-02-15T11:15:31.241Z,93.56
2018-02-15T11:16:31.108Z,93.28
2018-02-15T11:17:30.979Z,92.90
2018-02-15T11:18:30.846Z,92.61
2018-02-15T11:19:30.716Z,93.37
2018-02-15T11:20:30.585Z,93.28
2018-02-15T11:21:30.454Z,92.52
2018-02-15T11:22:30.320Z,92.80
2018-02-15T11:23:30.189Z,92.80
2018-02-15T11:24:30.058Z,92.80
2018-02-15T11:25:29.926Z,92.90
2018-02-15T11:26:29.793Z,92.71
2018-02-15T11:27:29.666Z,93.56
2018-02-15T11:28:29.533Z,93.94
2018-02-15T11:29:29.407Z,93.28
2018-02-15T11:30:29.270Z,93.75
2018-02-15T11:31:29.140Z,93.75
2018-02-15T11:32:29.011Z,94.13
2018-02-15T11:33:28.877Z,93.94
2018-02-15T11:34:28.745Z,94.51
2018-02-15T11:35:28.615Z,93.66
2018-02-15T11:36:28.486Z,93.09
2018-02-15T11:37:28.352Z,93.37
2018-02-15T11:38:28.221Z,93.09
2018-02-15T11:39:28.089Z,93.18
2018-02-15T11:40:27.958Z,93.75
2018-02-15T11:41:27.826Z,93.75
2018-02-15T11:42:27.703Z,94.51
2018-02-15T11:43:27.560Z,94.32
2018-02-15T11:44:27.430Z,94.41
2018-02-15T11:45:27.303Z,94.41
2018-02-15T11:46:27.168Z,94.41
2018-02-15T11:47:27.035Z,94.13
2018-02-15T11:48:26.910Z,94.13
2018-02-15T11:49:26.775Z,94.22
2018-02-15T11:50:26.641Z,94.79
2018-02-15T11:51:26.510Z,94.41
2018-02-15T11:52:26.379Z,94.89
2018-02-15T11:53:26.253Z,94.89
2018-02-15T11:54:26.117Z,95.26
2018-02-15T11:55:25.985Z,95.07
2018-02-15T11:56:25.870Z,95.17
2018-02-15T11:57:25.725Z,95.26
2018-02-15T11:58:25.586Z,94.70
2018-02-15T11:59:25.462Z,94.89
2018-02-15T12:00:25.326Z,95.07
2018-02-15T12:01:25.196Z,94.60
2018-02-15T12:02:25.063Z,94.98
2018-02-15T12:03:24.932Z,94.98
2018-02-15T12:04:24.801Z,95.07
2018-02-15T12:05:24.673Z,95.17
2018-02-15T12:06:24.538Z,94.89
2018-02-15T12:07:24.406Z,94.98
2018-02-15T12:08:24.278Z,94.89
2018-02-15T12:09:24.140Z,95.45
2018-02-15T12:10:24.009Z,95.64
2018-02-15T12:11:23.878Z,95.07
2018-02-15T12:12:23.745Z,95.07
2018-02-15T12:13:23.623Z,95.36
2018-02-15T12:14:23.483Z,94.98
2018-02-15T12:15:23.352Z,95.17
2018-02-15T12:16:23.223Z,95.73
2018-02-15T12:17:23.093Z,95.26
2018-02-15T12:18:22.960Z,95.45
2018-02-15T12:19:22.826Z,95.07
2018-02-15T12:20:22.695Z,95.36
2018-02-15T12:21:22.567Z,96.21
2018-02-15T12:22:22.433Z,95.64
2018-02-15T12:23:22.302Z,95.17
2018-02-15T12:24:22.171Z,95.36
2018-02-15T12:25:22.041Z,95.83
2018-02-15T12:26:21.907Z,96.02
2018-02-15T12:27:21.776Z,96.02
2018-02-15T12:28:21.646Z,96.11
2018-02-15T12:29:21.517Z,95.83
2018-02-15T12:30:21.385Z,95.92
2018-02-15T12:31:21.251Z,95.64
2018-02-15T12:32:21.120Z,96.11
2018-02-15T12:33:20.994Z,96.02
2018-02-15T12:34:20.859Z,95.88
2018-02-15T12:35:20.726Z,96.07
2018-02-15T12:36:20.596Z,95.26
2018-02-15T12:37:20.466Z,95.26
2018-02-15T12:38:20.361Z,95.83
2018-02-15T12:39:20.204Z,95.92
2018-02-15T12:40:20.071Z,95.83
2018-02-15T12:41:19.940Z,95.83
2018-02-15T12:42:19.808Z,95.64
2018-02-15T12:43:19.676Z,95.83
2018-02-15T12:44:19.548Z,96.02
2018-02-15T12:45:19.419Z,95.83
2018-02-15T12:46:19.285Z,95.64
2018-02-15T12:47:19.150Z,96.21
2018-02-15T12:48:19.022Z,95.92
2018-02-15T12:49:18.899Z,95.83
2018-02-15T12:50:18.758Z,95.92